sensor_id;sensor_type;location;lat;lon;timestamp;P1;durP1;ratioP1;P2;durP2;ratioP2
76801;SDS011;66403;50.832;10.950;2023-12-20T00:00:23;0.00;;;0.00;;
76801;SDS011;66403;50.832;10.950;2023-12-20T00:05:24;0.10;;;0.10;;
76801;SDS011;66403;50.832;10.950;2023-12-20T00:10:24;0.10;;;0.10;;
76801;SDS011;66403;50.832;10.950;2023-12-20T00:15:25;0.40;;;0.17;;
76801;SDS011;66403;50.832;10.950;2023-12-20T00:20:25;0.93;;;0.10;;
76801;SDS011;66403;50.832;10.950;2023-12-20T00:25:26;0.00;;;0.00;;
76801;SDS011;66403;50.832;10.950;2023-12-20T00:30:26;0.00;;;0.00;;
76801;SDS011;66403;50.832;10.950;2023-12-20T00:35:27;0.13;;;0.10;;
76801;SDS011;66403;50.832;10.950;2023-12-20T00:40:27;0.10;;;0.00;;
76801;SDS011;66403;50.832;10.950;2023-12-20T00:45:28;0.00;;;0.00;;
76801;SDS011;66403;50.832;10.950;2023-12-20T00:50:29;0.52;;;0.10;;
76801;SDS011;66403;50.832;10.950;2023-12-20T00:55:29;0.52;;;0.20;;
76801;SDS011;66403;50.832;10.950;2023-12-20T01:00:29;0.00;;;0.00;;
76801;SDS011;66403;50.832;10.950;2023-12-20T01:05:30;0.00;;;0.00;;
76801;SDS011;66403;50.832;10.950;2023-12-20T01:10:30;0.05;;;0.00;;
76801;SDS011;66403;50.832;10.950;2023-12-20T01:15:31;0.03;;;0.03;;
76801;SDS011;66403;50.832;10.950;2023-12-20T01:20:31;0.00;;;0.00;;
76801;SDS011;66403;50.832;10.950;2023-12-20T01:25:32;0.00;;;0.00;;
76801;SDS011;66403;50.832;10.950;2023-12-20T01:30:32;0.00;;;0.00;;
76801;SDS011;66403;50.832;10.950;2023-12-20T01:35:33;0.13;;;0.03;;
76801;SDS011;66403;50.832;10.950;2023-12-20T01:40:33;0.00;;;0.00;;
76801;SDS011;66403;50.832;10.950;2023-12-20T01:45:34;0.00;;;0.00;;
76801;SDS011;66403;50.832;10.950;2023-12-20T01:50:37;0.00;;;0.00;;
76801;SDS011;66403;50.832;10.950;2023-12-20T01:55:39;0.00;;;0.00;;
76801;SDS011;66403;50.832;10.950;2023-12-20T02:00:40;0.00;;;0.00;;
76801;SDS011;66403;50.832;10.950;2023-12-20T02:05:40;0.00;;;0.00;;
76801;SDS011;66403;50.832;10.950;2023-12-20T02:10:41;0.00;;;0.00;;
76801;SDS011;66403;50.832;10.950;2023-12-20T02:15:42;0.00;;;0.00;;
76801;SDS011;66403;50.832;10.950;2023-12-20T02:20:43;0.08;;;0.00;;
76801;SDS011;66403;50.832;10.950;2023-12-20T02:25:44;0.00;;;0.00;;
76801;SDS011;66403;50.832;10.950;2023-12-20T02:30:45;0.65;;;0.10;;
76801;SDS011;66403;50.832;10.950;2023-12-20T02:35:45;0.00;;;0.00;;
76801;SDS011;66403;50.832;10.950;2023-12-20T02:40:46;0.32;;;0.10;;
76801;SDS011;66403;50.832;10.950;2023-12-20T02:45:46;0.00;;;0.00;;
76801;SDS011;66403;50.832;10.950;2023-12-20T02:50:47;0.00;;;0.00;;
76801;SDS011;66403;50.832;10.950;2023-12-20T02:55:49;0.00;;;0.00;;
76801;SDS011;66403;50.832;10.950;2023-12-20T03:00:49;0.00;;;0.00;;
76801;SDS011;66403;50.832;10.950;2023-12-20T03:05:49;0.55;;;0.00;;
76801;SDS011;66403;50.832;10.950;2023-12-20T03:10:50;0.88;;;0.10;;
76801;SDS011;66403;50.832;10.950;2023-12-20T03:15:50;0.00;;;0.00;;
76801;SDS011;66403;50.832;10.950;2023-12-20T03:20:51;0.20;;;0.05;;
76801;SDS011;66403;50.832;10.950;2023-12-20T03:25:51;1.80;;;0.40;;
76801;SDS011;66403;50.832;10.950;2023-12-20T03:30:52;0.00;;;0.00;;
76801;SDS011;66403;50.832;10.950;2023-12-20T03:35:52;0.00;;;0.00;;
76801;SDS011;66403;50.832;10.950;2023-12-20T03:40:53;0.10;;;0.00;;
76801;SDS011;66403;50.832;10.950;2023-12-20T03:45:53;0.00;;;0.00;;
76801;SDS011;66403;50.832;10.950;2023-12-20T03:50:54;0.13;;;0.10;;
76801;SDS011;66403;50.832;10.950;2023-12-20T03:55:54;0.00;;;0.00;;
76801;SDS011;66403;50.832;10.950;2023-12-20T04:00:55;0.25;;;0.25;;
76801;SDS011;66403;50.832;10.950;2023-12-20T04:05:55;0.03;;;0.03;;
76801;SDS011;66403;50.832;10.950;2023-12-20T04:10:55;0.40;;;0.10;;
76801;SDS011;66403;50.832;10.950;2023-12-20T04:15:56;0.00;;;0.00;;
76801;SDS011;66403;50.832;10.950;2023-12-20T04:20:56;0.20;;;0.20;;
76801;SDS011;66403;50.832;10.950;2023-12-20T04:25:57;1.08;;;0.40;;
76801;SDS011;66403;50.832;10.950;2023-12-20T04:30:57;1.02;;;0.25;;
76801;SDS011;66403;50.832;10.950;2023-12-20T04:35:58;0.22;;;0.22;;
76801;SDS011;66403;50.832;10.950;2023-12-20T04:41:00;0.20;;;0.20;;
76801;SDS011;66403;50.832;10.950;2023-12-20T04:46:00;1.45;;;0.70;;
76801;SDS011;66403;50.832;10.950;2023-12-20T04:51:00;0.22;;;0.20;;
76801;SDS011;66403;50.832;10.950;2023-12-20T04:56:01;1.55;;;0.55;;
76801;SDS011;66403;50.832;10.950;2023-12-20T05:01:02;2.28;;;1.15;;
76801;SDS011;66403;50.832;10.950;2023-12-20T05:06:03;1.38;;;1.02;;
76801;SDS011;66403;50.832;10.950;2023-12-20T05:11:04;0.30;;;0.30;;
76801;SDS011;66403;50.832;10.950;2023-12-20T05:16:04;5.22;;;3.25;;
76801;SDS011;66403;50.832;10.950;2023-12-20T05:21:05;0.35;;;0.25;;
76801;SDS011;66403;50.832;10.950;2023-12-20T05:26:06;0.47;;;0.38;;
76801;SDS011;66403;50.832;10.950;2023-12-20T05:31:07;0.10;;;0.10;;
76801;SDS011;66403;50.832;10.950;2023-12-20T05:36:07;0.90;;;0.30;;
76801;SDS011;66403;50.832;10.950;2023-12-20T05:41:11;0.30;;;0.17;;
76801;SDS011;66403;50.832;10.950;2023-12-20T05:46:12;0.40;;;0.30;;
76801;SDS011;66403;50.832;10.950;2023-12-20T05:51:12;0.20;;;0.20;;
76801;SDS011;66403;50.832;10.950;2023-12-20T05:56:13;0.40;;;0.40;;
76801;SDS011;66403;50.832;10.950;2023-12-20T06:01:16;1.23;;;0.95;;
76801;SDS011;66403;50.832;10.950;2023-12-20T06:06:17;0.40;;;0.25;;
76801;SDS011;66403;50.832;10.950;2023-12-20T06:11:17;1.15;;;0.90;;
76801;SDS011;66403;50.832;10.950;2023-12-20T06:16:18;0.88;;;0.70;;
76801;SDS011;66403;50.832;10.950;2023-12-20T06:21:18;1.50;;;0.90;;
76801;SDS011;66403;50.832;10.950;2023-12-20T06:26:20;2.25;;;1.38;;
76801;SDS011;66403;50.832;10.950;2023-12-20T06:31:20;3.70;;;2.25;;
76801;SDS011;66403;50.832;10.950;2023-12-20T06:36:21;2.85;;;1.98;;
76801;SDS011;66403;50.832;10.950;2023-12-20T06:41:21;9.75;;;4.30;;
76801;SDS011;66403;50.832;10.950;2023-12-20T06:46:24;1.45;;;0.80;;
76801;SDS011;66403;50.832;10.950;2023-12-20T06:51:25;1.33;;;0.75;;
76801;SDS011;66403;50.832;10.950;2023-12-20T06:56:25;0.50;;;0.50;;
76801;SDS011;66403;50.832;10.950;2023-12-20T07:01:26;0.60;;;0.50;;
76801;SDS011;66403;50.832;10.950;2023-12-20T07:06:26;0.95;;;0.70;;
76801;SDS011;66403;50.832;10.950;2023-12-20T07:11:27;0.88;;;0.50;;
76801;SDS011;66403;50.832;10.950;2023-12-20T07:16:27;1.30;;;0.82;;
76801;SDS011;66403;50.832;10.950;2023-12-20T07:21:28;3.08;;;1.02;;
76801;SDS011;66403;50.832;10.950;2023-12-20T07:26:28;3.55;;;1.70;;
76801;SDS011;66403;50.832;10.950;2023-12-20T07:31:29;2.65;;;1.58;;
76801;SDS011;66403;50.832;10.950;2023-12-20T07:36:29;5.78;;;1.55;;
76801;SDS011;66403;50.832;10.950;2023-12-20T07:41:29;2.28;;;1.35;;
76801;SDS011;66403;50.832;10.950;2023-12-20T07:46:30;2.38;;;1.38;;
76801;SDS011;66403;50.832;10.950;2023-12-20T07:51:31;8.23;;;1.60;;
76801;SDS011;66403;50.832;10.950;2023-12-20T07:56:31;1.50;;;1.38;;
76801;SDS011;66403;50.832;10.950;2023-12-20T08:01:32;1.45;;;1.02;;
76801;SDS011;66403;50.832;10.950;2023-12-20T08:06:32;2.28;;;1.30;;
76801;SDS011;66403;50.832;10.950;2023-12-20T08:11:33;2.13;;;1.63;;
76801;SDS011;66403;50.832;10.950;2023-12-20T08:16:33;2.25;;;1.38;;
76801;SDS011;66403;50.832;10.950;2023-12-20T08:21:34;1.20;;;1.02;;
76801;SDS011;66403;50.832;10.950;2023-12-20T08:26:35;6.72;;;1.90;;
76801;SDS011;66403;50.832;10.950;2023-12-20T08:31:35;2.15;;;1.02;;
76801;SDS011;66403;50.832;10.950;2023-12-20T08:36:36;2.45;;;1.15;;
76801;SDS011;66403;50.832;10.950;2023-12-20T08:41:36;2.78;;;1.30;;
76801;SDS011;66403;50.832;10.950;2023-12-20T08:46:37;4.53;;;1.30;;
76801;SDS011;66403;50.832;10.950;2023-12-20T08:51:37;3.70;;;1.10;;
76801;SDS011;66403;50.832;10.950;2023-12-20T08:56:40;2.17;;;0.75;;
76801;SDS011;66403;50.832;10.950;2023-12-20T09:01:41;1.88;;;1.13;;
76801;SDS011;66403;50.832;10.950;2023-12-20T09:06:42;1.00;;;0.70;;
76801;SDS011;66403;50.832;10.950;2023-12-20T09:11:43;1.45;;;1.00;;
76801;SDS011;66403;50.832;10.950;2023-12-20T09:16:46;2.70;;;1.45;;
76801;SDS011;66403;50.832;10.950;2023-12-20T09:21:46;3.15;;;0.80;;
76801;SDS011;66403;50.832;10.950;2023-12-20T09:26:47;5.95;;;1.05;;
76801;SDS011;66403;50.832;10.950;2023-12-20T09:31:48;4.85;;;1.77;;
76801;SDS011;66403;50.832;10.950;2023-12-20T09:36:51;6.82;;;1.75;;
76801;SDS011;66403;50.832;10.950;2023-12-20T09:41:57;2.40;;;1.13;;
76801;SDS011;66403;50.832;10.950;2023-12-20T09:47:04;2.35;;;1.05;;
76801;SDS011;66403;50.832;10.950;2023-12-20T09:52:05;2.78;;;1.05;;
76801;SDS011;66403;50.832;10.950;2023-12-20T09:57:09;3.83;;;0.88;;
76801;SDS011;66403;50.832;10.950;2023-12-20T10:02:11;3.78;;;1.23;;
76801;SDS011;66403;50.832;10.950;2023-12-20T10:07:13;1.77;;;0.80;;
76801;SDS011;66403;50.832;10.950;2023-12-20T10:12:14;5.07;;;0.95;;
76801;SDS011;66403;50.832;10.950;2023-12-20T10:17:14;2.35;;;1.00;;
76801;SDS011;66403;50.832;10.950;2023-12-20T10:22:15;2.50;;;1.02;;
76801;SDS011;66403;50.832;10.950;2023-12-20T10:27:15;3.88;;;0.90;;
76801;SDS011;66403;50.832;10.950;2023-12-20T10:32:23;1.42;;;1.05;;
76801;SDS011;66403;50.832;10.950;2023-12-20T10:37:24;1.33;;;0.60;;
76801;SDS011;66403;50.832;10.950;2023-12-20T10:42:26;4.32;;;1.25;;
76801;SDS011;66403;50.832;10.950;2023-12-20T10:47:26;2.80;;;0.80;;
76801;SDS011;66403;50.832;10.950;2023-12-20T10:52:28;2.10;;;0.95;;
76801;SDS011;66403;50.832;10.950;2023-12-20T10:57:29;2.45;;;1.00;;
76801;SDS011;66403;50.832;10.950;2023-12-20T11:02:33;1.77;;;1.05;;
76801;SDS011;66403;50.832;10.950;2023-12-20T11:07:43;1.48;;;0.65;;
76801;SDS011;66403;50.832;10.950;2023-12-20T11:12:54;2.03;;;1.20;;
76801;SDS011;66403;50.832;10.950;2023-12-20T11:17:59;7.25;;;1.10;;
76801;SDS011;66403;50.832;10.950;2023-12-20T11:23:00;1.27;;;0.73;;
76801;SDS011;66403;50.832;10.950;2023-12-20T11:28:07;2.17;;;0.80;;
76801;SDS011;66403;50.832;10.950;2023-12-20T11:33:09;3.10;;;0.63;;
76801;SDS011;66403;50.832;10.950;2023-12-20T11:38:10;0.80;;;0.70;;
76801;SDS011;66403;50.832;10.950;2023-12-20T11:43:10;2.35;;;0.95;;
76801;SDS011;66403;50.832;10.950;2023-12-20T11:48:11;1.95;;;1.15;;
76801;SDS011;66403;50.832;10.950;2023-12-20T11:53:13;0.40;;;0.40;;
76801;SDS011;66403;50.832;10.950;2023-12-20T11:58:14;4.63;;;0.93;;
76801;SDS011;66403;50.832;10.950;2023-12-20T12:03:15;2.40;;;0.85;;
76801;SDS011;66403;50.832;10.950;2023-12-20T12:08:19;1.15;;;0.70;;
76801;SDS011;66403;50.832;10.950;2023-12-20T12:13:19;1.13;;;0.90;;
76801;SDS011;66403;50.832;10.950;2023-12-20T12:18:20;2.03;;;1.63;;
76801;SDS011;66403;50.832;10.950;2023-12-20T12:23:24;1.10;;;0.77;;
76801;SDS011;66403;50.832;10.950;2023-12-20T12:28:26;1.10;;;1.05;;
76801;SDS011;66403;50.832;10.950;2023-12-20T12:33:28;4.72;;;1.60;;
76801;SDS011;66403;50.832;10.950;2023-12-20T12:38:28;2.00;;;0.95;;
76801;SDS011;66403;50.832;10.950;2023-12-20T12:43:30;2.67;;;1.00;;
76801;SDS011;66403;50.832;10.950;2023-12-20T12:48:30;1.42;;;1.05;;
76801;SDS011;66403;50.832;10.950;2023-12-20T12:53:31;1.55;;;0.80;;
76801;SDS011;66403;50.832;10.950;2023-12-20T12:58:32;1.52;;;0.65;;
76801;SDS011;66403;50.832;10.950;2023-12-20T13:03:32;0.90;;;0.57;;
76801;SDS011;66403;50.832;10.950;2023-12-20T13:08:34;3.40;;;1.17;;
76801;SDS011;66403;50.832;10.950;2023-12-20T13:13:34;3.88;;;1.90;;
76801;SDS011;66403;50.832;10.950;2023-12-20T13:18:35;1.13;;;0.60;;
76801;SDS011;66403;50.832;10.950;2023-12-20T13:23:36;2.55;;;0.90;;
76801;SDS011;66403;50.832;10.950;2023-12-20T13:28:36;0.88;;;0.65;;
76801;SDS011;66403;50.832;10.950;2023-12-20T13:33:37;3.15;;;1.05;;
76801;SDS011;66403;50.832;10.950;2023-12-20T13:38:37;3.53;;;1.30;;
76801;SDS011;66403;50.832;10.950;2023-12-20T13:43:38;2.83;;;0.77;;
76801;SDS011;66403;50.832;10.950;2023-12-20T13:48:40;0.88;;;0.63;;
76801;SDS011;66403;50.832;10.950;2023-12-20T13:53:40;0.82;;;0.63;;
76801;SDS011;66403;50.832;10.950;2023-12-20T13:58:41;3.38;;;2.15;;
76801;SDS011;66403;50.832;10.950;2023-12-20T14:08:46;3.33;;;0.70;;
76801;SDS011;66403;50.832;10.950;2023-12-20T14:13:48;2.95;;;1.05;;
76801;SDS011;66403;50.832;10.950;2023-12-20T14:18:49;4.97;;;1.00;;
76801;SDS011;66403;50.832;10.950;2023-12-20T14:23:52;1.55;;;0.75;;
76801;SDS011;66403;50.832;10.950;2023-12-20T14:28:52;1.95;;;0.80;;
76801;SDS011;66403;50.832;10.950;2023-12-20T14:33:53;0.75;;;0.50;;
76801;SDS011;66403;50.832;10.950;2023-12-20T14:38:54;1.60;;;0.93;;
76801;SDS011;66403;50.832;10.950;2023-12-20T14:43:55;2.72;;;0.75;;
76801;SDS011;66403;50.832;10.950;2023-12-20T14:48:55;2.63;;;1.05;;
76801;SDS011;66403;50.832;10.950;2023-12-20T14:53:56;1.33;;;0.93;;
76801;SDS011;66403;50.832;10.950;2023-12-20T14:58:57;1.52;;;0.88;;
76801;SDS011;66403;50.832;10.950;2023-12-20T15:03:58;1.60;;;0.60;;
76801;SDS011;66403;50.832;10.950;2023-12-20T15:08:59;1.30;;;0.70;;
76801;SDS011;66403;50.832;10.950;2023-12-20T15:14:00;1.75;;;0.82;;
76801;SDS011;66403;50.832;10.950;2023-12-20T15:19:00;1.15;;;0.70;;
76801;SDS011;66403;50.832;10.950;2023-12-20T15:24:01;0.63;;;0.52;;
76801;SDS011;66403;50.832;10.950;2023-12-20T15:29:14;3.65;;;0.80;;
76801;SDS011;66403;50.832;10.950;2023-12-20T15:34:16;2.13;;;1.00;;
76801;SDS011;66403;50.832;10.950;2023-12-20T15:39:16;0.57;;;0.52;;
76801;SDS011;66403;50.832;10.950;2023-12-20T15:44:17;2.33;;;0.90;;
76801;SDS011;66403;50.832;10.950;2023-12-20T15:49:17;1.05;;;0.77;;
76801;SDS011;66403;50.832;10.950;2023-12-20T15:54:18;3.90;;;1.20;;
76801;SDS011;66403;50.832;10.950;2023-12-20T15:59:19;2.78;;;0.80;;
76801;SDS011;66403;50.832;10.950;2023-12-20T16:04:20;4.15;;;1.48;;
76801;SDS011;66403;50.832;10.950;2023-12-20T16:09:20;5.95;;;2.08;;
76801;SDS011;66403;50.832;10.950;2023-12-20T16:14:20;1.90;;;1.10;;
76801;SDS011;66403;50.832;10.950;2023-12-20T16:19:21;4.22;;;1.75;;
76801;SDS011;66403;50.832;10.950;2023-12-20T16:24:21;2.05;;;0.82;;
76801;SDS011;66403;50.832;10.950;2023-12-20T16:29:22;3.13;;;1.08;;
76801;SDS011;66403;50.832;10.950;2023-12-20T16:34:23;4.32;;;1.33;;
76801;SDS011;66403;50.832;10.950;2023-12-20T16:39:23;1.38;;;1.00;;
76801;SDS011;66403;50.832;10.950;2023-12-20T16:44:24;3.70;;;1.10;;
76801;SDS011;66403;50.832;10.950;2023-12-20T16:49:24;1.50;;;0.95;;
76801;SDS011;66403;50.832;10.950;2023-12-20T16:54:25;1.77;;;0.63;;
76801;SDS011;66403;50.832;10.950;2023-12-20T16:59:25;1.13;;;0.85;;
76801;SDS011;66403;50.832;10.950;2023-12-20T17:04:26;1.63;;;1.02;;
76801;SDS011;66403;50.832;10.950;2023-12-20T17:09:27;2.15;;;1.33;;
76801;SDS011;66403;50.832;10.950;2023-12-20T17:14:28;2.88;;;0.80;;
76801;SDS011;66403;50.832;10.950;2023-12-20T17:19:28;3.10;;;1.10;;
76801;SDS011;66403;50.832;10.950;2023-12-20T17:24:30;2.58;;;0.70;;
76801;SDS011;66403;50.832;10.950;2023-12-20T17:29:31;1.92;;;0.88;;
76801;SDS011;66403;50.832;10.950;2023-12-20T17:34:31;1.33;;;1.00;;
76801;SDS011;66403;50.832;10.950;2023-12-20T17:39:32;1.13;;;0.57;;
76801;SDS011;66403;50.832;10.950;2023-12-20T17:44:33;3.72;;;1.30;;
76801;SDS011;66403;50.832;10.950;2023-12-20T17:49:33;1.27;;;0.90;;
76801;SDS011;66403;50.832;10.950;2023-12-20T17:54:34;0.98;;;0.70;;
76801;SDS011;66403;50.832;10.950;2023-12-20T17:59:34;1.80;;;1.00;;
76801;SDS011;66403;50.832;10.950;2023-12-20T18:04:35;1.70;;;1.23;;
76801;SDS011;66403;50.832;10.950;2023-12-20T18:09:36;0.85;;;0.70;;
76801;SDS011;66403;50.832;10.950;2023-12-20T18:14:36;0.93;;;0.80;;
76801;SDS011;66403;50.832;10.950;2023-12-20T18:19:37;2.47;;;1.15;;
76801;SDS011;66403;50.832;10.950;2023-12-20T18:24:38;1.90;;;0.80;;
76801;SDS011;66403;50.832;10.950;2023-12-20T18:29:38;4.10;;;1.10;;
76801;SDS011;66403;50.832;10.950;2023-12-20T18:34:39;1.58;;;1.20;;
76801;SDS011;66403;50.832;10.950;2023-12-20T18:39:40;1.52;;;0.85;;
76801;SDS011;66403;50.832;10.950;2023-12-20T18:44:40;7.43;;;1.38;;
76801;SDS011;66403;50.832;10.950;2023-12-20T18:49:41;1.85;;;1.10;;
76801;SDS011;66403;50.832;10.950;2023-12-20T18:54:41;2.08;;;1.00;;
76801;SDS011;66403;50.832;10.950;2023-12-20T18:59:42;2.13;;;0.82;;
76801;SDS011;66403;50.832;10.950;2023-12-20T19:04:42;1.63;;;0.82;;
76801;SDS011;66403;50.832;10.950;2023-12-20T19:09:43;1.25;;;0.95;;
76801;SDS011;66403;50.832;10.950;2023-12-20T19:14:43;0.65;;;0.65;;
76801;SDS011;66403;50.832;10.950;2023-12-20T19:19:44;1.33;;;1.00;;
76801;SDS011;66403;50.832;10.950;2023-12-20T19:24:44;2.63;;;0.80;;
76801;SDS011;66403;50.832;10.950;2023-12-20T19:29:45;3.00;;;1.73;;
76801;SDS011;66403;50.832;10.950;2023-12-20T19:34:45;1.38;;;0.93;;
76801;SDS011;66403;50.832;10.950;2023-12-20T19:39:46;0.70;;;0.60;;
76801;SDS011;66403;50.832;10.950;2023-12-20T19:44:46;1.15;;;1.15;;
76801;SDS011;66403;50.832;10.950;2023-12-20T19:49:47;0.50;;;0.50;;
76801;SDS011;66403;50.832;10.950;2023-12-20T19:54:47;1.50;;;0.40;;
76801;SDS011;66403;50.832;10.950;2023-12-20T19:59:48;1.38;;;0.57;;
76801;SDS011;66403;50.832;10.950;2023-12-20T20:04:49;1.50;;;0.75;;
76801;SDS011;66403;50.832;10.950;2023-12-20T20:09:50;0.73;;;0.60;;
76801;SDS011;66403;50.832;10.950;2023-12-20T20:14:50;0.40;;;0.35;;
76801;SDS011;66403;50.832;10.950;2023-12-20T20:19:51;1.55;;;0.80;;
76801;SDS011;66403;50.832;10.950;2023-12-20T20:24:56;0.40;;;0.40;;
76801;SDS011;66403;50.832;10.950;2023-12-20T20:29:56;0.35;;;0.28;;
76801;SDS011;66403;50.832;10.950;2023-12-20T20:34:56;0.40;;;0.30;;
76801;SDS011;66403;50.832;10.950;2023-12-20T20:39:57;0.40;;;0.40;;
76801;SDS011;66403;50.832;10.950;2023-12-20T20:45:00;1.75;;;0.80;;
76801;SDS011;66403;50.832;10.950;2023-12-20T20:50:00;1.85;;;0.40;;
76801;SDS011;66403;50.832;10.950;2023-12-20T20:55:01;1.08;;;0.63;;
76801;SDS011;66403;50.832;10.950;2023-12-20T21:00:01;1.42;;;0.65;;
76801;SDS011;66403;50.832;10.950;2023-12-20T21:05:02;1.20;;;0.70;;
76801;SDS011;66403;50.832;10.950;2023-12-20T21:10:03;0.43;;;0.40;;
76801;SDS011;66403;50.832;10.950;2023-12-20T21:15:03;1.70;;;0.43;;
76801;SDS011;66403;50.832;10.950;2023-12-20T21:20:05;1.55;;;0.70;;
76801;SDS011;66403;50.832;10.950;2023-12-20T21:25:07;0.63;;;0.40;;
76801;SDS011;66403;50.832;10.950;2023-12-20T21:30:09;0.45;;;0.45;;
76801;SDS011;66403;50.832;10.950;2023-12-20T21:35:09;1.42;;;0.38;;
76801;SDS011;66403;50.832;10.950;2023-12-20T21:40:11;3.03;;;0.45;;
76801;SDS011;66403;50.832;10.950;2023-12-20T21:45:11;0.28;;;0.28;;
76801;SDS011;66403;50.832;10.950;2023-12-20T21:50:12;0.63;;;0.40;;
76801;SDS011;66403;50.832;10.950;2023-12-20T21:55:13;0.75;;;0.30;;
76801;SDS011;66403;50.832;10.950;2023-12-20T22:00:13;0.40;;;0.40;;
76801;SDS011;66403;50.832;10.950;2023-12-20T22:05:14;0.50;;;0.30;;
76801;SDS011;66403;50.832;10.950;2023-12-20T22:10:14;1.08;;;0.40;;
76801;SDS011;66403;50.832;10.950;2023-12-20T22:15:15;0.35;;;0.30;;
76801;SDS011;66403;50.832;10.950;2023-12-20T22:20:15;2.90;;;0.40;;
76801;SDS011;66403;50.832;10.950;2023-12-20T22:25:16;0.40;;;0.40;;
76801;SDS011;66403;50.832;10.950;2023-12-20T22:30:17;0.93;;;0.30;;
76801;SDS011;66403;50.832;10.950;2023-12-20T22:35:17;0.80;;;0.63;;
76801;SDS011;66403;50.832;10.950;2023-12-20T22:40:19;0.45;;;0.32;;
76801;SDS011;66403;50.832;10.950;2023-12-20T22:45:20;1.98;;;0.50;;
76801;SDS011;66403;50.832;10.950;2023-12-20T22:50:21;0.68;;;0.45;;
76801;SDS011;66403;50.832;10.950;2023-12-20T22:55:24;0.95;;;0.22;;
76801;SDS011;66403;50.832;10.950;2023-12-20T23:00:26;0.30;;;0.20;;
76801;SDS011;66403;50.832;10.950;2023-12-20T23:05:26;0.30;;;0.30;;
76801;SDS011;66403;50.832;10.950;2023-12-20T23:10:27;0.32;;;0.20;;
76801;SDS011;66403;50.832;10.950;2023-12-20T23:15:30;0.20;;;0.20;;
76801;SDS011;66403;50.832;10.950;2023-12-20T23:20:30;0.10;;;0.10;;
76801;SDS011;66403;50.832;10.950;2023-12-20T23:25:31;0.03;;;0.03;;
76801;SDS011;66403;50.832;10.950;2023-12-20T23:30:33;0.10;;;0.10;;
76801;SDS011;66403;50.832;10.950;2023-12-20T23:35:33;0.00;;;0.00;;
76801;SDS011;66403;50.832;10.950;2023-12-20T23:40:33;0.05;;;0.00;;
76801;SDS011;66403;50.832;10.950;2023-12-20T23:45:34;0.10;;;0.10;;
76801;SDS011;66403;50.832;10.950;2023-12-20T23:50:34;0.10;;;0.10;;
76801;SDS011;66403;50.832;10.950;2023-12-20T23:55:35;0.35;;;0.30;;
